FW6317 Weather Reports


time (UTC)temp
F
wind
direction
speed
knots
gust
knots
rain 1hr
in
rain 24hr
in
rain mn
in
humidity
%
barometer
mb
20220525123030 63 14 0.0 2.6 0.02 0.88 0.47 94 1008.9
20220525121523 63 0 0.0 3.5 0.02 0.88 0.47 95 1009.7
20220525120030 63 0 0.0 1.7 0.01 0.86 0.45 95 1011.0
20220525114527 63 0 0.0 0.9 0.03 0.86 0.45 95 1010.5
20220525113033 63 0 0.0 2.6 0.04 0.86 0.45 95 1009.3
20220525111532 63 0 0.0 0.9 0.13 0.86 0.45 95 1009.6
20220525110029 63 40 0.0 2.6 0.39 0.85 0.44 94 1010.5
20220525104523 63 183 0.9 3.5 0.42 0.83 0.42 95 1011.0
20220525103025 63 0 1.7 5.2 0.40 0.81 0.40 94 1011.7
20220525101548 63 134 1.7 10.4 0.32 0.73 0.32 94 1012.3
20220525100026 64 234 2.6 13.0 0.04 0.45 0.04 94 1012.0
20220525094527 69 314 2.6 9.6 0.00 0.41 0.00 95 1010.9
20220525093029 69 0 0.0 0.0 0.00 0.41 0.00 95 1009.6
20220525091539 69 0 0.0 0.0 0.00 0.41 0.00 95 1009.7
20220525090024 69 0 0.0 0.0 0.00 0.41 0.00 95 1009.6
20220525084523 68 0 0.0 0.0 0.00 0.41 0.00 95 1009.3
20220525083031 68 0 0.0 0.0 0.00 0.41 0.00 95 1009.2
20220525081528 68 0 0.0 0.0 0.00 0.41 0.00 95 1009.3
20220525080024 67 0 0.0 0.9 0.00 0.41 0.00 94 1008.6
20220525074525 67 0 0.0 0.0 0.00 0.41 0.00 94 1008.5
20220525073028 68 0 0.0 0.0 0.00 0.41 0.00 94 1008.5
20220525071539 68 0 0.0 0.0 0.00 0.41 0.00 94 1008.7
20220525070031 68 0 0.0 0.0 0.00 0.41 0.00 94 1008.7
20220525064524 68 0 0.0 0.0 0.00 0.41 0.00 94 1008.7
20220525063024 68 0 0.0 0.0 0.00 0.41 0.00 94 1008.6
20220525061532 68 0 0.0 0.0 0.00 0.41 0.00 94 1008.6
20220525060024 69 0 0.0 0.0 0.00 0.41 0.00 94 1008.8
20220525054529 68 0 0.0 0.0 0.00 0.41 0.00 94 1009.0
20220525053023 68 0 0.0 0.0 0.00 0.41 0.00 94 1009.2
20220525051523 69 0 0.0 0.0 0.00 0.41 0.00 94 1009.5
20220525050023 69 0 0.0 0.0 0.00 0.41 0.00 94 1009.8
20220525044524 69 0 0.0 0.0 0.00 0.41 0.41 94 1009.9
20220525043024 69 0 0.0 0.9 0.01 0.41 0.41 94 1009.7
20220525041526 68 0 0.0 0.0 0.01 0.41 0.41 94 1009.7
20220525040034 68 0 0.0 0.0 0.01 0.41 0.41 94 1009.6
20220525034524 69 0 0.0 0.0 0.01 0.41 0.41 94 1009.7
20220525033024 69 0 0.0 0.0 0.00 0.40 0.40 94 1009.3
20220525031525 69 0 0.0 0.0 0.00 0.40 0.40 94 1008.7
20220525030034 69 0 0.0 0.0 0.00 0.40 0.40 94 1008.3
20220525024538 69 0 0.0 0.0 0.00 0.40 0.40 93 1007.8
20220525023041 69 0 0.0 0.0 0.00 0.40 0.40 93 1007.6
20220525021526 69 0 0.0 1.7 0.00 0.40 0.40 93 1007.6
20220525020032 70 47 0.0 1.7 0.00 0.40 0.40 93 1007.7
20220525014532 70 0 0.0 1.7 0.00 0.40 0.40 93 1007.4
20220525013032 70 0 0.0 1.7 0.00 0.40 0.40 93 1007.2
20220525011547 70 66 0.0 0.9 0.01 0.40 0.40 93 1007.0
20220525010028 71 0 0.0 0.9 0.03 0.40 0.40 93 1006.7
20220525004531 71 0 0.0 1.7 0.03 0.40 0.40 93 1006.5
20220525003031 72 42 0.0 1.7 0.03 0.40 0.40 93 1007.1
20220525001526 72 0 0.0 7.0 0.02 0.39 0.39 92 1007.0
20220525000023 74 0 0.0 0.9 0.00 0.37 0.37 93 1007.3
20220524234556 74 360 0.0 1.7 0.00 0.37 0.37 93 1006.8
20220524233028 74 0 0.0 0.9 0.00 0.37 0.37 93 1006.9
20220524231536 74 0 0.0 1.7 0.00 0.37 0.37 93 1007.3
20220524230037 74 0 0.0 2.6 0.00 0.37 0.37 93 1007.7
20220524224527 74 0 0.0 0.9 0.00 0.37 0.37 93 1007.9
20220524223034 74 0 0.0 0.0 0.00 0.37 0.37 92 1008.1
20220524221526 74 0 0.0 1.7 0.00 0.37 0.37 92 1008.2
20220524220026 75 0 0.0 0.9 0.00 0.37 0.37 92 1008.1
20220524214530 75 0 0.0 3.5 0.00 0.37 0.37 92 1008.5
20220524213026 73 360 0.9 2.6 0.00 0.37 0.37 94 1008.7
20220524211534 73 0 0.0 0.9 0.00 0.37 0.37 94 1009.1
20220524210039 72 0 0.0 2.6 0.00 0.37 0.37 94 1009.6
20220524204526 72 0 0.0 1.7 0.01 0.37 0.37 94 1009.9
20220524203025 72 0 0.0 1.7 0.02 0.37 0.37 94 1010.2
20220524201533 72 0 0.0 1.7 0.02 0.37 0.37 94 1010.3
20220524200026 72 0 0.0 0.9 0.02 0.37 0.37 94 1010.5
20220524194534 72 0 0.0 0.9 0.01 0.36 0.36 94 1010.9
20220524193029 71 0 0.0 1.7 0.00 0.35 0.35 94 1010.9
20220524191540 71 0 0.0 0.0 0.00 0.35 0.35 93 1011.0
20220524190024 71 360 0.0 3.5 0.01 0.35 0.35 93 1010.6
20220524184523 71 0 0.0 1.7 0.02 0.35 0.35 93 1010.6
20220524183041 70 0 0.0 2.6 0.04 0.35 0.35 93 1010.6
20220524181532 70 0 0.0 1.7 0.08 0.35 0.35 93 1011.1
20220524180039 70 0 0.0 0.9 0.09 0.34 0.34 93 1011.0
20220524174525 70 0 0.0 1.7 0.08 0.33 0.33 92 1011.3
20220524173025 70 0 0.0 0.9 0.22 0.31 0.31 92 1011.5
20220524171523 70 0 0.0 1.7 0.27 0.27 0.27 92 1011.6
20220524170037 71 0 0.0 1.7 0.25 0.25 0.25 91 1011.6
20220524164539 71 0 0.9 5.2 0.25 0.25 0.25 90 1011.5
20220524163028 76 360 0.9 5.2 0.08 0.08 0.08 84 1012.0
20220524161522 79 360 0.9 3.5 0.00 0.00 0.00 85 1011.3
20220524160028 80 350 0.0 1.7 0.00 0.00 0.00 86 1010.2
20220524154530 81 0 0.0 2.6 0.00 0.00 0.00 87 1010.1
20220524153025 80 0 0.0 1.7 0.00 0.00 0.00 88 1010.4
20220524151524 79 0 0.0 0.9 0.00 0.00 0.00 88 1010.7
20220524150023 79 0 0.0 0.0 0.00 0.00 0.00 89 1010.7
20220524144536 78 53 0.0 1.7 0.00 0.00 0.00 90 1011.0
20220524143027 77 0 0.0 1.7 0.00 0.00 0.00 90 1011.2
20220524141529 76 0 0.0 0.0 0.00 0.00 0.00 91 1011.4
20220524140025 76 0 0.0 0.0 0.00 0.00 0.00 91 1011.5
20220524134523 75 0 0.0 0.0 0.00 0.00 0.00 92 1011.6
20220524133023 74 0 0.0 0.0 0.00 0.00 0.00 92 1011.7
20220524131525 73 0 0.0 0.0 0.00 0.00 0.00 92 1011.6
20220524130025 73 0 0.0 0.0 0.00 0.00 0.00 92 1011.5
20220524124556 72 0 0.0 0.0 0.00 0.00 0.00 93 1011.5